createdAt,value
2019-05-02T00:04:22.689Z,20.50
2019-05-02T00:09:28.620Z,20.72
2019-05-02T00:14:34.773Z,22.13
2019-05-02T00:19:40.141Z,22.05
2019-05-02T00:24:45.682Z,22.27
2019-05-02T00:29:53.785Z,20.27
2019-05-02T00:34:58.198Z,21.27
2019-05-02T00:40:03.551Z,18.57
2019-05-02T00:45:08.735Z,20.08
2019-05-02T00:50:14.147Z,19.37
2019-05-02T00:55:19.648Z,20.53
2019-05-02T01:00:25.885Z,22.05
2019-05-02T01:05:33.861Z,19.13
2019-05-02T01:10:38.222Z,22.58
2019-05-02T01:15:44.129Z,22.93
2019-05-02T01:20:49.610Z,24.43
2019-05-02T01:25:54.872Z,24.60
2019-05-02T01:31:18.370Z,23.97
2019-05-02T01:36:28.323Z,25.97
2019-05-02T01:41:33.578Z,26.52
2019-05-02T01:46:39.101Z,24.75
2019-05-02T01:51:47.661Z,26.45
2019-05-02T01:56:51.290Z,26.20
2019-05-02T02:01:57.946Z,25.57
2019-05-02T02:07:03.437Z,26.60
2019-05-02T02:12:09.861Z,26.07
2019-05-02T02:17:17.286Z,25.55
2019-05-02T02:22:39.334Z,27.20
2019-05-02T02:27:41.412Z,26.35
2019-05-02T02:32:46.762Z,26.40
2019-05-02T02:37:55.134Z,27.10
2019-05-02T02:43:13.020Z,27.27
2019-05-02T02:48:06.074Z,28.30
2019-05-02T02:53:11.269Z,29.00
2019-05-02T02:58:16.438Z,30.00
2019-05-02T03:03:27.782Z,29.83
2019-05-02T03:08:28.486Z,27.80
2019-05-02T03:13:53.374Z,30.60
2019-05-02T03:18:57.138Z,30.85
2019-05-02T03:24:05.622Z,31.93
2019-05-02T03:29:09.582Z,30.90
2019-05-02T03:34:15.266Z,31.02
2019-05-02T03:39:20.470Z,31.37
2019-05-02T03:44:26.774Z,31.75
2019-05-02T03:49:32.604Z,33.30
2019-05-02T03:54:48.346Z,32.17
2019-05-02T03:59:44.801Z,35.13
2019-05-02T04:04:54.209Z,34.80
2019-05-02T04:09:59.008Z,33.90
2019-05-02T04:15:09.388Z,34.47
2019-05-02T04:20:12.879Z,36.37
2019-05-02T04:25:20.152Z,36.98
2019-05-02T04:30:25.309Z,36.03
2019-05-02T04:35:34.889Z,37.80
2019-05-02T04:40:41.756Z,38.83
2019-05-02T04:45:55.724Z,39.10
2019-05-02T04:51:02.017Z,39.15
2019-05-02T04:56:06.961Z,39.37
2019-05-02T05:01:10.146Z,40.73
2019-05-02T05:06:14.952Z,40.03
2019-05-02T05:11:24.719Z,41.77
2019-05-02T05:16:28.664Z,43.97
2019-05-02T05:21:34.307Z,42.67
2019-05-02T05:26:43.040Z,41.97
2019-05-02T05:31:48.366Z,44.38
2019-05-02T05:36:53.479Z,43.73
2019-05-02T05:41:58.775Z,41.13
2019-05-02T05:47:04.091Z,39.48
2019-05-02T05:52:09.466Z,40.60
2019-05-02T05:57:17.449Z,41.88
2019-05-02T06:02:22.018Z,41.02
2019-05-02T06:07:27.856Z,40.80
2019-05-02T06:12:35.547Z,39.73
2019-05-02T06:17:41.693Z,41.53
2019-05-02T06:22:46.927Z,40.55
2019-05-02T06:27:52.496Z,40.63
2019-05-02T06:32:57.903Z,40.12
2019-05-02T06:38:03.140Z,38.73
2019-05-02T06:43:09.799Z,39.38
2019-05-02T06:48:17.646Z,40.98
2019-05-02T06:53:22.835Z,39.58
2019-05-02T06:58:28.128Z,36.77
2019-05-02T07:03:33.365Z,39.18
2019-05-02T07:08:39.861Z,36.60
2019-05-02T07:13:45.200Z,36.42
2019-05-02T07:18:53.717Z,36.38
2019-05-02T07:23:59.030Z,35.30
2019-05-02T07:29:08.672Z,36.88
2019-05-02T07:34:14.208Z,35.30
2019-05-02T07:39:19.635Z,36.08
2019-05-02T07:44:27.239Z,35.52
2019-05-02T07:49:33.912Z,35.38
2019-05-02T07:54:38.882Z,35.17
2019-05-02T07:59:44.239Z,36.20
2019-05-02T08:04:50.558Z,34.45
2019-05-02T08:09:55.835Z,35.52
2019-05-02T08:15:01.812Z,35.40
2019-05-02T08:20:08.687Z,34.25
2019-05-02T08:25:15.736Z,34.15
2019-05-02T08:30:25.003Z,35.92
2019-05-02T08:35:31.220Z,33.78
2019-05-02T08:40:37.591Z,31.95
2019-05-02T08:45:42.836Z,33.90
2019-05-02T08:50:48.068Z,32.73
2019-05-02T08:55:53.313Z,30.77
2019-05-02T09:00:58.865Z,30.02
2019-05-02T09:06:05.881Z,30.88
2019-05-02T09:11:14.569Z,30.00
2019-05-02T09:16:26.444Z,28.87
2019-05-02T09:21:26.624Z,28.55
2019-05-02T09:26:37.959Z,26.80
2019-05-02T09:31:42.152Z,24.20
2019-05-02T09:36:47.338Z,26.20
2019-05-02T09:41:52.861Z,22.20
2019-05-02T09:46:58.944Z,23.15
2019-05-02T09:52:04.227Z,20.70
2019-05-02T09:57:09.472Z,24.35
2019-05-02T10:02:15.561Z,22.15
2019-05-02T10:07:22.262Z,21.73
2019-05-02T10:12:27.597Z,21.05
2019-05-02T10:17:37.521Z,21.33
2019-05-02T10:22:41.912Z,21.60
2019-05-02T10:27:49.679Z,19.25
2019-05-02T10:32:57.374Z,20.92
2019-05-02T10:38:03.173Z,19.92
2019-05-02T10:43:11.710Z,22.65
2019-05-02T10:48:25.873Z,22.58
2019-05-02T10:53:23.799Z,22.58
2019-05-02T10:58:34.125Z,22.25
2019-05-02T11:03:43.791Z,22.50
2019-05-02T11:08:47.729Z,22.75
2019-05-02T11:14:05.895Z,20.23
2019-05-02T11:19:14.273Z,20.40
2019-05-02T11:24:19.511Z,19.57
2019-05-02T11:29:25.708Z,22.07
2019-05-02T11:34:32.644Z,21.65
2019-05-02T11:39:47.791Z,22.98
2019-05-02T11:44:45.428Z,22.22
2019-05-02T11:49:55.620Z,21.77
2019-05-02T11:54:59.030Z,23.25
2019-05-02T12:00:08.836Z,24.00
2019-05-02T12:05:14.595Z,23.25
2019-05-02T12:10:21.632Z,22.45
2019-05-02T12:15:27.600Z,23.27
2019-05-02T12:20:36.494Z,22.20
2019-05-02T12:25:39.924Z,20.82
2019-05-02T12:30:45.174Z,21.87
2019-05-02T12:35:52.595Z,20.62
2019-05-02T12:40:58.060Z,20.85
2019-05-02T12:46:03.336Z,20.43
2019-05-02T12:51:08.613Z,21.12
2019-05-02T12:56:13.855Z,21.20
2019-05-02T13:01:19.119Z,19.57
2019-05-02T13:06:24.663Z,18.92
2019-05-02T13:11:43.959Z,20.05
2019-05-02T13:16:46.069Z,20.48
2019-05-02T13:22:25.433Z,18.07
2019-05-02T13:27:32.264Z,20.15
2019-05-02T13:32:39.565Z,19.37
2019-05-02T13:37:46.150Z,19.30
2019-05-02T13:42:52.361Z,18.67
2019-05-02T13:47:57.604Z,17.05
2019-05-02T13:53:02.896Z,16.57
2019-05-02T13:58:08.128Z,16.50
2019-05-02T14:03:14.052Z,14.38
2019-05-02T14:08:36.717Z,13.60
2019-05-02T14:13:39.130Z,12.00
2019-05-02T14:18:44.381Z,11.18
2019-05-02T14:23:51.685Z,11.60
2019-05-02T14:28:56.649Z,11.00
2019-05-02T14:34:21.691Z,10.60
2019-05-02T14:39:28.313Z,11.35
2019-05-02T14:45:01.379Z,11.60
2019-05-02T14:49:42.811Z,10.70
2019-05-02T14:54:48.210Z,11.73
2019-05-02T14:59:59.095Z,11.45
2019-05-02T15:05:02.034Z,11.48
2019-05-02T15:10:07.954Z,11.48
2019-05-02T15:15:13.164Z,11.55
2019-05-02T15:20:18.519Z,10.63
2019-05-02T15:25:23.759Z,10.78
2019-05-02T15:30:29.016Z,10.80
2019-05-02T15:36:07.311Z,10.85
2019-05-02T15:41:12.837Z,11.03
2019-05-02T15:46:22.757Z,10.98
2019-05-02T15:51:23.796Z,10.25
2019-05-02T15:56:29.400Z,9.98
2019-05-02T16:01:47.334Z,10.40
2019-05-02T16:06:48.896Z,9.93
2019-05-02T16:11:56.951Z,10.55
2019-05-02T16:17:03.796Z,11.40
2019-05-02T16:22:17.068Z,9.70
2019-05-02T16:27:42.101Z,9.13
2019-05-02T16:32:55.117Z,10.43
2019-05-02T16:38:00.361Z,10.23
2019-05-02T16:43:05.799Z,9.45
2019-05-02T16:48:12.041Z,9.68
2019-05-02T16:53:22.519Z,10.40
2019-05-02T16:58:24.419Z,10.25
2019-05-02T17:03:36.682Z,9.85
2019-05-02T17:09:03.974Z,9.05
2019-05-02T17:14:11.975Z,9.05
2019-05-02T17:19:17.908Z,9.30
2019-05-02T17:24:26.123Z,8.75
2019-05-02T17:29:31.752Z,9.45
2019-05-02T17:34:37.153Z,9.58
2019-05-02T17:39:46.044Z,9.98
2019-05-02T17:44:51.884Z,9.68
2019-05-02T17:49:59.086Z,10.03
2019-05-02T17:55:04.996Z,9.40
2019-05-02T18:00:16.936Z,10.00
2019-05-02T18:05:26.461Z,9.33
2019-05-02T18:10:32.180Z,10.58
2019-05-02T18:15:37.091Z,9.00
2019-05-02T18:20:46.346Z,9.60
2019-05-02T18:25:49.591Z,9.48
2019-05-02T18:31:00.325Z,10.28
2019-05-02T18:36:02.191Z,9.98
2019-05-02T18:41:07.945Z,8.93
2019-05-02T18:46:14.187Z,9.55
2019-05-02T18:51:19.423Z,9.38
2019-05-02T18:56:24.787Z,8.70
2019-05-02T19:01:32.031Z,9.38
2019-05-02T19:06:37.743Z,9.20
2019-05-02T19:11:43.007Z,9.35
2019-05-02T19:16:48.708Z,9.08
2019-05-02T19:21:54.396Z,9.13
2019-05-02T19:26:59.723Z,9.30
2019-05-02T19:32:08.498Z,8.90
2019-05-02T19:37:13.739Z,9.20
2019-05-02T19:42:22.620Z,8.88
2019-05-02T19:47:26.563Z,8.03
2019-05-02T19:52:38.925Z,7.90
2019-05-02T19:57:39.123Z,9.83
2019-05-02T20:02:44.765Z,8.38
2019-05-02T20:07:51.959Z,9.45
2019-05-02T20:12:57.385Z,8.98
2019-05-02T20:18:04.618Z,11.15
2019-05-02T20:23:17.987Z,11.05
2019-05-02T20:28:17.269Z,12.35
2019-05-02T20:33:22.717Z,10.05
2019-05-02T20:38:27.964Z,10.80
2019-05-02T20:43:33.217Z,10.08
2019-05-02T20:48:39.376Z,11.68
2019-05-02T20:53:44.961Z,10.38
2019-05-02T20:58:50.201Z,9.75
2019-05-02T21:03:56.516Z,10.10
2019-05-02T21:09:11.829Z,8.75
2019-05-02T21:14:17.810Z,10.50
2019-05-02T21:19:23.500Z,10.18
2019-05-02T21:24:28.749Z,10.38
2019-05-02T21:29:35.152Z,11.05
2019-05-02T21:34:42.507Z,12.75
2019-05-02T21:39:48.201Z,13.28
2019-05-02T21:44:55.324Z,13.28
2019-05-02T21:50:15.684Z,18.23
2019-05-02T21:55:28.257Z,21.33
2019-05-02T22:00:52.752Z,22.95
2019-05-02T22:06:00.068Z,25.17
2019-05-02T22:11:05.464Z,26.48
2019-05-02T22:16:12.767Z,26.25
2019-05-02T22:21:18.635Z,26.95
2019-05-02T22:26:25.194Z,26.27
2019-05-02T22:31:32.410Z,26.85
2019-05-02T22:36:38.169Z,25.90
2019-05-02T22:41:43.323Z,20.83
2019-05-02T22:46:48.605Z,19.03
2019-05-02T22:51:53.761Z,18.97
2019-05-02T22:56:59.002Z,19.95
2019-05-02T23:02:04.364Z,23.73
2019-05-02T23:07:09.868Z,24.27
2019-05-02T23:12:15.068Z,25.30
2019-05-02T23:17:20.686Z,26.23
2019-05-02T23:22:26.255Z,27.47
2019-05-02T23:27:42.506Z,29.90
2019-05-02T23:32:48.130Z,29.20
2019-05-02T23:37:53.714Z,30.27
2019-05-02T23:42:58.966Z,33.08
2019-05-02T23:48:05.019Z,33.78
2019-05-02T23:53:12.734Z,32.15
2019-05-02T23:58:18.193Z,33.53
